createdAt,value
2023-03-22T00:00:19.207Z,11.33
2023-03-22T00:02:46.767Z,11.33
2023-03-22T00:05:13.867Z,11.31
2023-03-22T00:08:00.546Z,11.29
2023-03-22T00:10:30.169Z,11.28
2023-03-22T00:12:57.093Z,11.25
2023-03-22T00:15:25.930Z,11.22
2023-03-22T00:17:52.756Z,11.19
2023-03-22T00:20:23.085Z,11.16
2023-03-22T00:22:50.893Z,11.14
2023-03-22T00:25:20.593Z,11.11
2023-03-22T00:27:49.066Z,11.09
2023-03-22T00:30:16.279Z,11.06
2023-03-22T00:32:43.993Z,11.02
2023-03-22T00:35:11.887Z,11.00
2023-03-22T00:37:39.203Z,10.98
2023-03-22T00:40:10.751Z,10.92
2023-03-22T00:42:38.710Z,10.89
2023-03-22T00:45:07.633Z,10.88
2023-03-22T00:47:34.879Z,10.85
2023-03-22T00:50:07.267Z,10.84
2023-03-22T00:52:34.292Z,10.84
2023-03-22T00:55:02.405Z,10.83
2023-03-22T00:57:29.933Z,10.83
2023-03-22T00:59:57.807Z,10.83
2023-03-22T01:02:29.556Z,10.82
2023-03-22T01:04:57.360Z,10.82
2023-03-22T01:07:24.299Z,10.82
2023-03-22T01:09:51.857Z,10.80
2023-03-22T01:12:18.848Z,10.80
2023-03-22T01:14:45.906Z,10.82
2023-03-22T01:17:17.985Z,10.81
2023-03-22T01:19:55.750Z,10.79
2023-03-22T01:22:24.018Z,10.76
2023-03-22T01:24:55.426Z,10.65
2023-03-22T01:27:47.525Z,10.52
2023-03-22T01:30:15.863Z,10.36
2023-03-22T01:32:44.903Z,10.25
2023-03-22T01:35:12.580Z,10.20
2023-03-22T01:37:40.996Z,10.19
2023-03-22T01:40:17.223Z,10.19
2023-03-22T01:43:26.356Z,10.15
2023-03-22T01:45:55.920Z,10.07
2023-03-22T01:48:27.818Z,9.98
2023-03-22T01:51:09.796Z,9.88
2023-03-22T01:53:54.236Z,9.77
2023-03-22T01:56:24.407Z,9.72
2023-03-22T01:58:51.295Z,9.68
2023-03-22T02:01:20.569Z,9.65
2023-03-22T02:03:51.881Z,9.61
2023-03-22T02:06:19.006Z,9.58
2023-03-22T02:08:47.159Z,9.58
2023-03-22T02:11:27.607Z,9.61
2023-03-22T02:14:19.243Z,9.63
2023-03-22T02:17:27.636Z,9.64
2023-03-22T02:20:24.025Z,9.67
2023-03-22T02:23:16.398Z,9.72
2023-03-22T02:26:06.889Z,9.77
2023-03-22T02:28:58.331Z,9.80
2023-03-22T02:31:46.829Z,9.80
2023-03-22T02:34:28.183Z,9.79
2023-03-22T02:37:11.056Z,9.79
2023-03-22T02:39:56.486Z,9.81
2023-03-22T02:42:45.713Z,9.83
2023-03-22T02:45:22.430Z,9.85
2023-03-22T02:48:18.499Z,9.85
2023-03-22T02:51:07.832Z,9.84
2023-03-22T02:53:40.287Z,9.85
2023-03-22T02:56:19.353Z,9.85
2023-03-22T02:58:48.590Z,9.89
2023-03-22T03:01:26.695Z,9.93
2023-03-22T03:03:56.854Z,9.98
2023-03-22T03:06:29.170Z,10.03
2023-03-22T03:08:57.628Z,10.06
2023-03-22T03:11:27.876Z,10.08
2023-03-22T03:13:55.808Z,10.11
2023-03-22T03:16:26.975Z,10.12
2023-03-22T03:19:10.499Z,10.13
2023-03-22T03:21:47.639Z,10.13
2023-03-22T03:24:26.840Z,10.14
2023-03-22T03:27:01.490Z,10.15
2023-03-22T03:30:02.480Z,10.15
2023-03-22T03:32:35.027Z,10.15
2023-03-22T03:35:21.776Z,10.12
2023-03-22T03:37:53.089Z,10.10
2023-03-22T03:40:33.262Z,10.12
2023-03-22T03:43:03.060Z,10.14
2023-03-22T03:45:30.901Z,10.14
2023-03-22T03:48:02.927Z,10.15
2023-03-22T03:50:29.917Z,10.15
2023-03-22T03:52:57.094Z,10.16
2023-03-22T03:55:24.426Z,10.16
2023-03-22T03:57:51.676Z,10.15
2023-03-22T04:00:19.022Z,10.11
2023-03-22T04:03:05.430Z,10.08
2023-03-22T04:05:55.472Z,10.04
2023-03-22T04:08:22.936Z,9.97
2023-03-22T04:10:51.387Z,9.92
2023-03-22T04:13:24.755Z,9.90
2023-03-22T04:15:53.811Z,9.86
2023-03-22T04:18:29.203Z,9.80
2023-03-22T04:20:56.990Z,9.70
2023-03-22T04:23:25.487Z,9.59
2023-03-22T04:25:59.147Z,9.52
2023-03-22T04:28:34.287Z,9.46
2023-03-22T04:31:08.109Z,9.45
2023-03-22T04:34:05.040Z,9.40
2023-03-22T04:36:49.272Z,9.44
2023-03-22T04:39:27.073Z,9.50
2023-03-22T04:42:14.475Z,9.57
2023-03-22T04:44:43.206Z,9.64
2023-03-22T04:47:10.326Z,9.70
2023-03-22T04:49:42.422Z,9.73
2023-03-22T04:52:11.450Z,9.72
2023-03-22T04:54:40.343Z,9.75
2023-03-22T04:57:09.884Z,9.80
2023-03-22T04:59:41.223Z,9.81
2023-03-22T05:02:08.475Z,9.84
2023-03-22T05:04:43.309Z,9.83
2023-03-22T05:07:33.151Z,9.81
2023-03-22T05:10:02.590Z,9.78
2023-03-22T05:12:31.531Z,9.76
2023-03-22T05:15:20.720Z,9.76
2023-03-22T05:17:48.220Z,9.81
2023-03-22T05:20:15.522Z,9.89
2023-03-22T05:22:50.209Z,10.00
2023-03-22T05:25:44.682Z,10.12
2023-03-22T05:28:19.063Z,10.22
2023-03-22T05:30:57.481Z,10.26
2023-03-22T05:33:34.388Z,10.30
2023-03-22T05:36:01.978Z,10.37
2023-03-22T05:38:31.112Z,10.47
2023-03-22T05:40:59.882Z,10.59
2023-03-22T05:43:27.387Z,10.69
2023-03-22T05:45:55.219Z,10.77
2023-03-22T05:48:33.407Z,10.81
2023-03-22T05:51:00.422Z,10.84
2023-03-22T05:53:31.419Z,10.86
2023-03-22T05:56:26.242Z,10.86
2023-03-22T05:59:02.238Z,10.87
2023-03-22T06:01:30.657Z,10.92
2023-03-22T06:04:16.334Z,10.98
2023-03-22T06:06:53.834Z,11.04
2023-03-22T06:09:33.598Z,11.10
2023-03-22T06:12:00.672Z,11.16
2023-03-22T06:14:27.486Z,11.23
2023-03-22T06:17:15.566Z,11.31
2023-03-22T06:19:43.717Z,11.39
2023-03-22T06:22:32.936Z,11.53
2023-03-22T06:25:00.757Z,11.65
2023-03-22T06:27:40.688Z,11.81
2023-03-22T06:30:08.436Z,11.98
2023-03-22T06:32:46.517Z,12.17
2023-03-22T06:35:14.685Z,12.31
2023-03-22T06:37:41.815Z,12.33
2023-03-22T06:40:12.108Z,12.37
2023-03-22T06:42:40.260Z,12.47
2023-03-22T06:45:10.253Z,12.61
2023-03-22T06:47:38.780Z,12.61
2023-03-22T06:50:06.005Z,12.53
2023-03-22T06:53:10.829Z,12.51
2023-03-22T06:55:39.490Z,12.60
2023-03-22T06:58:19.540Z,12.67
2023-03-22T07:00:46.361Z,12.71
2023-03-22T07:03:13.792Z,12.76
2023-03-22T07:05:52.456Z,12.84
2023-03-22T07:08:20.350Z,12.89
2023-03-22T07:10:50.689Z,12.93
2023-03-22T07:13:20.746Z,12.97
2023-03-22T07:15:48.428Z,13.06
2023-03-22T07:18:37.246Z,13.17
2023-03-22T07:21:06.895Z,13.29
2023-03-22T07:23:35.178Z,13.41
2023-03-22T07:26:06.582Z,13.48
2023-03-22T07:28:35.052Z,13.50
2023-03-22T07:31:11.027Z,13.46
2023-03-22T07:34:04.204Z,13.46
2023-03-22T07:36:37.764Z,13.51
2023-03-22T07:39:05.831Z,13.54
2023-03-22T07:41:35.085Z,13.56
2023-03-22T07:44:19.445Z,13.60
2023-03-22T07:46:52.026Z,13.64
2023-03-22T07:49:28.185Z,13.67
2023-03-22T07:52:15.656Z,13.72
2023-03-22T07:54:44.815Z,13.85
2023-03-22T07:57:14.465Z,14.04
2023-03-22T07:59:46.556Z,14.26
2023-03-22T08:02:14.030Z,14.44
2023-03-22T08:04:45.834Z,14.57
2023-03-22T08:07:37.134Z,14.64
2023-03-22T08:10:05.527Z,14.62
2023-03-22T08:12:33.542Z,14.60
2023-03-22T08:15:09.095Z,14.56
2023-03-22T08:17:36.727Z,14.53
2023-03-22T08:20:08.339Z,14.54
2023-03-22T08:22:45.590Z,14.54
2023-03-22T08:25:29.210Z,14.52
2023-03-22T08:28:03.787Z,14.50
2023-03-22T08:30:32.293Z,14.49
2023-03-22T08:32:59.188Z,14.53
2023-03-22T08:35:27.186Z,14.65
2023-03-22T08:37:55.278Z,14.75
2023-03-22T08:40:26.660Z,14.86
2023-03-22T08:43:00.958Z,14.97
2023-03-22T08:45:29.524Z,15.03
2023-03-22T08:48:04.456Z,15.01
2023-03-22T08:50:35.675Z,15.04
2023-03-22T08:53:13.392Z,14.95
2023-03-22T08:55:44.354Z,14.87
2023-03-22T08:58:12.535Z,14.92
2023-03-22T09:00:48.901Z,15.03
2023-03-22T09:03:24.441Z,15.12
2023-03-22T09:05:52.951Z,15.18
2023-03-22T09:08:24.165Z,15.24
2023-03-22T09:10:57.394Z,15.29
2023-03-22T09:13:24.628Z,15.28
2023-03-22T09:16:02.370Z,15.21
2023-03-22T09:18:34.168Z,15.22
2023-03-22T09:21:05.013Z,15.26
2023-03-22T09:23:41.493Z,15.33
2023-03-22T09:26:10.056Z,15.34
2023-03-22T09:28:37.940Z,15.29
2023-03-22T09:31:07.503Z,15.21
2023-03-22T09:33:35.782Z,15.18
2023-03-22T09:36:04.037Z,15.16
2023-03-22T09:38:38.374Z,15.04
2023-03-22T09:41:06.678Z,15.09
2023-03-22T09:43:42.131Z,15.22
2023-03-22T09:46:22.099Z,15.17
2023-03-22T09:48:49.443Z,15.10
2023-03-22T09:51:41.809Z,15.09
2023-03-22T09:54:32.933Z,15.12
2023-03-22T09:57:20.955Z,15.16
2023-03-22T10:00:16.025Z,15.19
2023-03-22T10:03:06.125Z,15.33
2023-03-22T10:05:57.904Z,15.39
2023-03-22T10:08:36.564Z,15.48
2023-03-22T10:11:27.259Z,15.56
2023-03-22T10:14:02.061Z,15.66
2023-03-22T10:16:33.662Z,15.78
2023-03-22T10:19:20.520Z,15.90
2023-03-22T10:21:52.583Z,16.11
2023-03-22T10:24:35.137Z,16.25
2023-03-22T10:27:02.034Z,16.38
2023-03-22T10:29:35.912Z,16.52
2023-03-22T10:32:56.389Z,16.70
2023-03-22T10:35:41.748Z,17.02
2023-03-22T10:38:13.123Z,17.25
2023-03-22T10:40:42.217Z,17.35
2023-03-22T10:43:40.972Z,17.56
2023-03-22T10:46:42.342Z,17.89
2023-03-22T10:49:43.087Z,17.85
2023-03-22T10:52:44.279Z,17.65
2023-03-22T10:55:24.758Z,17.76
2023-03-22T10:58:22.354Z,17.83
2023-03-22T11:01:08.316Z,17.69
2023-03-22T11:04:02.292Z,17.54
2023-03-22T11:06:37.883Z,17.38
2023-03-22T11:09:32.255Z,17.30
2023-03-22T11:12:32.132Z,17.27
2023-03-22T11:16:02.590Z,17.25
2023-03-22T11:18:59.207Z,17.31
2023-03-22T11:21:55.841Z,17.37
2023-03-22T11:24:58.244Z,17.31
2023-03-22T11:28:23.209Z,17.06
2023-03-22T11:31:19.910Z,17.04
2023-03-22T11:34:15.170Z,17.18
2023-03-22T11:37:07.206Z,17.30
2023-03-22T11:40:11.440Z,17.34
2023-03-22T11:43:08.204Z,17.34
2023-03-22T11:46:12.579Z,17.46
2023-03-22T11:49:06.467Z,17.47
2023-03-22T11:52:21.246Z,17.54
2023-03-22T11:55:19.585Z,17.66
2023-03-22T11:58:11.395Z,17.67
2023-03-22T12:00:53.318Z,17.50
2023-03-22T12:03:55.358Z,17.34
2023-03-22T12:35:52.347Z,16.50
2023-03-22T13:33:23.451Z,16.46
2023-03-22T13:41:27.378Z,16.54
2023-03-22T13:54:42.234Z,16.51
2023-03-22T13:57:16.964Z,16.53
2023-03-22T14:00:09.553Z,16.54
